createdAt,value
2023-03-22T00:02:16.573Z,100588.39
2023-03-22T00:04:44.675Z,100584.50
2023-03-22T00:07:12.846Z,100581.16
2023-03-22T00:09:41.063Z,100581.84
2023-03-22T00:12:09.257Z,100577.64
2023-03-22T00:14:37.446Z,100578.31
2023-03-22T00:17:05.953Z,100576.06
2023-03-22T00:19:34.236Z,100575.01
2023-03-22T00:22:03.696Z,100571.53
2023-03-22T00:24:32.256Z,100567.01
2023-03-22T00:27:01.114Z,100568.15
2023-03-22T00:29:29.417Z,100566.19
2023-03-22T00:31:58.500Z,100565.81
2023-03-22T00:34:32.478Z,100564.20
2023-03-22T00:37:01.500Z,100562.27
2023-03-22T00:39:30.404Z,100560.53
2023-03-22T00:41:58.475Z,100563.45
2023-03-22T00:44:27.082Z,100560.27
2023-03-22T00:46:55.551Z,100556.92
2023-03-22T00:49:23.649Z,100551.00
2023-03-22T00:51:51.797Z,100544.72
2023-03-22T00:54:19.956Z,100539.15
2023-03-22T00:56:49.998Z,100534.09
2023-03-22T00:59:18.566Z,100527.14
2023-03-22T01:01:47.217Z,100530.58
2023-03-22T01:04:18.334Z,100526.74
2023-03-22T01:06:47.356Z,100524.64
2023-03-22T01:09:15.735Z,100520.80
2023-03-22T01:11:45.806Z,100513.66
2023-03-22T01:14:16.919Z,100507.14
2023-03-22T01:16:45.510Z,100502.95
2023-03-22T01:19:13.969Z,100502.95
2023-03-22T01:21:42.232Z,100497.42
2023-03-22T01:24:10.708Z,100495.35
2023-03-22T01:26:39.107Z,100491.70
2023-03-22T01:29:07.172Z,100487.22
2023-03-22T01:31:35.370Z,100480.98
2023-03-22T01:34:04.048Z,100480.28
2023-03-22T01:36:33.012Z,100479.63
2023-03-22T01:39:01.116Z,100477.22
2023-03-22T01:41:34.911Z,100472.60
2023-03-22T01:44:13.403Z,100469.70
2023-03-22T01:46:43.362Z,100466.46
2023-03-22T01:49:24.452Z,100458.38
2023-03-22T01:51:55.363Z,100456.85
2023-03-22T01:54:50.596Z,100452.75
2023-03-22T01:57:29.435Z,100446.52
2023-03-22T01:59:58.393Z,100443.42
2023-03-22T02:02:44.050Z,100443.40
2023-03-22T02:05:22.526Z,100441.09
2023-03-22T02:07:53.149Z,100435.15
2023-03-22T02:10:26.422Z,100431.98
2023-03-22T02:13:24.487Z,100431.55
2023-03-22T02:16:16.311Z,100431.65
2023-03-22T02:19:19.600Z,100428.82
2023-03-22T02:22:16.610Z,100426.67
2023-03-22T02:25:09.822Z,100427.32
2023-03-22T02:28:15.157Z,100424.12
2023-03-22T02:31:00.205Z,100422.67
2023-03-22T02:33:57.479Z,100421.06
2023-03-22T02:36:59.710Z,100415.82
2023-03-22T02:39:31.807Z,100412.45
2023-03-22T02:42:08.991Z,100412.42
2023-03-22T02:44:46.909Z,100412.20
2023-03-22T02:47:39.900Z,100413.17
2023-03-22T02:50:14.405Z,100410.53
2023-03-22T02:52:54.085Z,100404.11
2023-03-22T02:55:59.465Z,100404.24
2023-03-22T02:58:33.722Z,100403.70
2023-03-22T03:01:07.383Z,100405.58
2023-03-22T03:03:38.067Z,100406.76
2023-03-22T03:06:13.658Z,100407.42
2023-03-22T03:08:43.597Z,100398.92
2023-03-22T03:11:12.556Z,100398.04
2023-03-22T03:13:40.703Z,100398.54
2023-03-22T03:16:17.594Z,100391.44
2023-03-22T03:19:07.961Z,100390.05
2023-03-22T03:21:58.868Z,100390.92
2023-03-22T03:24:33.546Z,100386.75
2023-03-22T03:27:14.673Z,100389.88
2023-03-22T03:29:51.488Z,100384.02
2023-03-22T03:32:26.902Z,100384.56
2023-03-22T03:35:18.097Z,100387.02
2023-03-22T03:38:01.690Z,100384.95
2023-03-22T03:40:37.831Z,100384.13
2023-03-22T03:43:07.194Z,100383.13
2023-03-22T03:45:37.532Z,100387.83
2023-03-22T03:48:12.025Z,100383.55
2023-03-22T03:50:40.556Z,100387.78
2023-03-22T03:53:10.081Z,100388.02
2023-03-22T03:55:38.194Z,100387.71
2023-03-22T03:58:09.123Z,100384.29
2023-03-22T04:00:38.727Z,100382.96
2023-03-22T04:03:30.385Z,100381.08
2023-03-22T04:06:04.740Z,100377.64
2023-03-22T04:08:36.269Z,100376.14
2023-03-22T04:11:05.206Z,100378.63
2023-03-22T04:13:33.877Z,100386.46
2023-03-22T04:16:04.288Z,100387.35
2023-03-22T04:18:35.316Z,100388.58
2023-03-22T04:21:05.805Z,100379.39
2023-03-22T04:23:41.146Z,100379.07
2023-03-22T04:26:09.454Z,100375.79
2023-03-22T04:28:46.003Z,100373.91
2023-03-22T04:31:14.128Z,100371.51
2023-03-22T04:33:54.947Z,100369.98
2023-03-22T04:36:45.268Z,100368.45
2023-03-22T04:39:22.081Z,100363.30
2023-03-22T04:41:58.697Z,100358.10
2023-03-22T04:44:27.780Z,100353.30
2023-03-22T04:46:56.003Z,100352.25
2023-03-22T04:49:24.199Z,100351.73
2023-03-22T04:51:53.090Z,100347.24
2023-03-22T04:54:27.667Z,100341.37
2023-03-22T04:56:56.593Z,100341.55
2023-03-22T04:59:25.244Z,100337.95
2023-03-22T05:01:53.614Z,100333.43
2023-03-22T05:04:27.334Z,100335.17
2023-03-22T05:07:01.779Z,100330.00
2023-03-22T05:09:38.172Z,100332.80
2023-03-22T05:12:06.983Z,100324.65
2023-03-22T05:14:42.780Z,100313.23
2023-03-22T05:17:12.020Z,100311.17
2023-03-22T05:19:40.802Z,100314.15
2023-03-22T05:22:08.873Z,100313.48
2023-03-22T05:24:43.052Z,100315.55
2023-03-22T05:27:15.595Z,100317.28
2023-03-22T05:29:46.904Z,100313.12
2023-03-22T05:32:25.712Z,100320.17
2023-03-22T05:34:56.334Z,100323.77
2023-03-22T05:37:32.825Z,100321.98
2023-03-22T05:40:01.880Z,100321.45
2023-03-22T05:42:37.586Z,100312.77
2023-03-22T05:45:14.696Z,100307.48
2023-03-22T05:47:43.921Z,100313.16
2023-03-22T05:50:18.176Z,100313.13
2023-03-22T05:52:46.852Z,100317.92
2023-03-22T05:55:23.337Z,100316.15
2023-03-22T05:57:56.824Z,100317.18
2023-03-22T06:00:25.864Z,100323.77
2023-03-22T06:03:26.510Z,100318.90
2023-03-22T06:06:10.834Z,100319.08
2023-03-22T06:08:47.616Z,100328.23
2023-03-22T06:11:15.707Z,100337.73
2023-03-22T06:13:43.801Z,100336.61
2023-03-22T06:16:12.272Z,100336.07
2023-03-22T06:18:41.037Z,100343.10
2023-03-22T06:21:12.102Z,100345.11
2023-03-22T06:23:40.317Z,100342.33
2023-03-22T06:26:11.543Z,100338.82
2023-03-22T06:28:41.395Z,100342.23
2023-03-22T06:31:10.856Z,100341.13
2023-03-22T06:33:45.715Z,100341.60
2023-03-22T06:36:49.215Z,100341.91
2023-03-22T06:39:25.550Z,100338.59
2023-03-22T06:41:54.428Z,100338.95
2023-03-22T06:44:22.844Z,100338.40
2023-03-22T06:46:54.177Z,100340.44
2023-03-22T06:49:42.592Z,100337.67
2023-03-22T06:52:15.483Z,100346.15
2023-03-22T06:54:43.956Z,100347.16
2023-03-22T06:57:12.309Z,100344.36
2023-03-22T06:59:40.438Z,100343.63
2023-03-22T07:02:11.974Z,100341.33
2023-03-22T07:04:42.811Z,100336.60
2023-03-22T07:07:11.645Z,100340.48
2023-03-22T07:09:40.393Z,100337.41
2023-03-22T07:12:09.970Z,100337.83
2023-03-22T07:14:38.669Z,100336.70
2023-03-22T07:17:25.385Z,100336.73
2023-03-22T07:19:54.030Z,100339.09
2023-03-22T07:22:24.932Z,100334.33
2023-03-22T07:24:57.742Z,100337.69
2023-03-22T07:27:27.574Z,100331.73
2023-03-22T07:29:56.328Z,100326.32
2023-03-22T07:32:24.570Z,100327.44
2023-03-22T07:35:07.860Z,100334.80
2023-03-22T07:37:36.296Z,100330.23
2023-03-22T07:40:07.039Z,100330.33
2023-03-22T07:42:35.600Z,100326.98
2023-03-22T07:45:22.828Z,100326.59
2023-03-22T07:48:12.013Z,100321.67
2023-03-22T07:50:56.544Z,100315.38
2023-03-22T07:53:25.907Z,100310.64
2023-03-22T07:55:54.296Z,100308.00
2023-03-22T07:58:22.578Z,100310.56
2023-03-22T08:00:50.799Z,100312.58
2023-03-22T08:03:37.867Z,100315.11
2023-03-22T08:06:16.525Z,100320.40
2023-03-22T08:08:44.688Z,100321.70
2023-03-22T08:11:12.855Z,100317.05
2023-03-22T08:13:41.213Z,100313.13
2023-03-22T08:16:12.706Z,100307.07
2023-03-22T08:18:43.027Z,100308.79
2023-03-22T08:21:12.780Z,100302.30
2023-03-22T08:23:42.518Z,100294.47
2023-03-22T08:26:33.472Z,100292.31
2023-03-22T08:29:09.704Z,100292.39
2023-03-22T08:31:38.405Z,100288.51
2023-03-22T08:34:06.601Z,100292.19
2023-03-22T08:36:34.850Z,100290.52
2023-03-22T08:39:05.501Z,100294.21
2023-03-22T08:41:41.506Z,100298.21
2023-03-22T08:44:10.239Z,100300.36
2023-03-22T08:46:38.552Z,100298.32
2023-03-22T08:49:07.400Z,100293.20
2023-03-22T08:51:48.360Z,100292.02
2023-03-22T08:54:19.704Z,100288.80
2023-03-22T08:56:54.626Z,100284.21
2023-03-22T08:59:52.360Z,100275.77
2023-03-22T09:02:28.203Z,100274.27
2023-03-22T09:04:56.890Z,100275.41
2023-03-22T09:07:25.432Z,100273.81
2023-03-22T09:10:20.013Z,100272.35
2023-03-22T09:12:49.687Z,100266.48
2023-03-22T09:15:18.050Z,100264.06
2023-03-22T09:17:48.912Z,100269.48
2023-03-22T09:20:17.366Z,100268.60
2023-03-22T09:22:47.442Z,100268.98
2023-03-22T09:25:20.802Z,100263.08
2023-03-22T09:27:49.845Z,100267.11
2023-03-22T09:30:18.004Z,100264.19
2023-03-22T09:32:46.181Z,100261.75
2023-03-22T09:35:16.515Z,100264.16
2023-03-22T09:37:59.020Z,100262.88
2023-03-22T09:40:31.478Z,100250.83
2023-03-22T09:43:04.779Z,100248.36
2023-03-22T09:45:43.041Z,100252.89
2023-03-22T09:48:16.908Z,100248.36
2023-03-22T09:50:48.717Z,100250.44
2023-03-22T09:53:18.675Z,100249.63
2023-03-22T09:55:55.873Z,100252.16
2023-03-22T09:58:23.928Z,100251.90
2023-03-22T10:00:56.941Z,100251.52
2023-03-22T10:03:45.751Z,100253.73
2023-03-22T10:06:23.027Z,100247.70
2023-03-22T10:09:10.120Z,100250.64
2023-03-22T10:11:51.656Z,100241.16
2023-03-22T10:14:27.175Z,100256.92
2023-03-22T10:16:58.262Z,100249.54
2023-03-22T10:19:33.613Z,100237.30
2023-03-22T10:22:04.117Z,100235.42
2023-03-22T10:24:35.746Z,100233.50
2023-03-22T10:27:04.848Z,100247.71
2023-03-22T10:29:38.113Z,100243.89
2023-03-22T10:32:16.885Z,100232.80
2023-03-22T10:34:46.611Z,100231.67
2023-03-22T10:37:22.442Z,100242.23
2023-03-22T10:39:56.125Z,100234.57
2023-03-22T10:42:27.915Z,100228.48
2023-03-22T10:45:13.652Z,100228.70
2023-03-22T10:47:48.807Z,100233.14
2023-03-22T10:50:39.405Z,100231.88
2023-03-22T10:53:43.293Z,100227.45
2023-03-22T10:56:13.985Z,100211.84
2023-03-22T10:58:42.335Z,100214.52
2023-03-22T11:01:13.535Z,100212.17
2023-03-22T11:03:44.322Z,100206.71
2023-03-22T11:06:13.605Z,100204.58
2023-03-22T11:08:47.895Z,100192.85
2023-03-22T11:11:36.381Z,100192.64
2023-03-22T11:14:16.065Z,100194.63
2023-03-22T11:17:02.119Z,100194.42
2023-03-22T11:19:37.376Z,100195.59
2023-03-22T11:22:25.722Z,100197.65
2023-03-22T11:24:56.446Z,100202.27
2023-03-22T11:27:28.772Z,100201.73
2023-03-22T11:30:08.040Z,100203.99
2023-03-22T11:32:38.836Z,100205.79
2023-03-22T11:35:15.873Z,100208.34
2023-03-22T11:37:46.833Z,100199.19
2023-03-22T11:40:18.415Z,100213.15
2023-03-22T11:42:47.857Z,100209.81
2023-03-22T11:45:31.197Z,100208.95
2023-03-22T11:48:07.685Z,100207.56
2023-03-22T11:50:38.502Z,100197.65
2023-03-22T11:53:12.101Z,100188.27
2023-03-22T11:55:42.664Z,100185.61
2023-03-22T11:58:26.382Z,100191.13
2023-03-22T12:01:01.527Z,100183.60
2023-03-22T12:03:39.880Z,100178.83
2023-03-22T12:06:22.176Z,100172.09
2023-03-22T12:08:56.737Z,100163.60
2023-03-22T12:11:34.724Z,100167.77
2023-03-22T12:14:05.498Z,100168.45
2023-03-22T12:16:45.803Z,100164.65
2023-03-22T12:19:23.632Z,100162.41
2023-03-22T12:21:52.896Z,100155.82
2023-03-22T12:24:31.051Z,100154.00
2023-03-22T12:27:10.301Z,100154.86
2023-03-22T12:29:54.219Z,100150.76
2023-03-22T12:32:28.600Z,100147.67
2023-03-22T12:35:09.268Z,100143.75
2023-03-22T12:37:48.337Z,100148.41
2023-03-22T12:40:32.243Z,100155.22
2023-03-22T12:43:25.954Z,100153.14
2023-03-22T12:45:59.746Z,100147.05
2023-03-22T12:48:28.016Z,100148.02
2023-03-22T12:51:06.341Z,100145.54
2023-03-22T12:53:43.010Z,100144.95
2023-03-22T12:56:26.836Z,100142.83
2023-03-22T12:59:01.530Z,100146.35
2023-03-22T13:01:39.867Z,100138.16
2023-03-22T13:04:31.773Z,100133.36
2023-03-22T13:07:20.453Z,100132.50
2023-03-22T13:09:50.754Z,100126.81
2023-03-22T13:12:18.842Z,100130.63
2023-03-22T13:14:53.200Z,100128.58
2023-03-22T13:17:24.609Z,100119.68
2023-03-22T13:20:21.863Z,100126.76
2023-03-22T13:22:50.152Z,100127.98
2023-03-22T13:25:19.286Z,100124.86
2023-03-22T13:28:21.042Z,100118.60
2023-03-22T13:30:58.649Z,100118.20
2023-03-22T13:33:28.026Z,100115.80
2023-03-22T13:35:59.500Z,100110.16
2023-03-22T13:38:30.456Z,100109.19
2023-03-22T13:41:04.725Z,100109.92
2023-03-22T13:43:39.038Z,100111.58
2023-03-22T13:46:22.210Z,100102.71
2023-03-22T13:48:53.221Z,100109.52
2023-03-22T13:51:29.790Z,100106.27
2023-03-22T13:54:18.120Z,100102.52
2023-03-22T13:57:01.509Z,100099.89
2023-03-22T14:00:09.571Z,100106.57
2023-03-22T14:02:42.242Z,100101.10
2023-03-22T14:05:18.902Z,100097.69
2023-03-22T14:07:52.303Z,100101.36
2023-03-22T14:10:22.704Z,100101.91
2023-03-22T14:12:55.777Z,100102.70
2023-03-22T14:15:28.860Z,100101.42
2023-03-22T14:17:57.062Z,100107.93
2023-03-22T14:20:27.129Z,100104.28
